Time;durP1;ratioP1;P1;durP2;ratioP2;P2;SDS_P1;SDS_P2;PMS_P1;PMS_P2;Temp;Humidity;BMP_temperature;BMP_pressure;BME280_temperature;BME280_humidity;BME280_pressure;Samples;Min_cycle;Max_cycle;Signal;HPM_P1;HPM_P2
2022/11/16 00:01:46;;;;;;;13.37;9.47;;;;;;;11.49;100.00;99883.34;5027009;28;20496;-71
2022/11/16 00:04:12;;;;;;;11.60;8.77;;;;;;;11.47;100.00;99878.06;5038910;28;20029;-68
2022/11/16 00:06:37;;;;;;;10.50;9.38;;;;;;;11.38;100.00;99873.94;5034778;28;20041;-68
2022/11/16 00:09:21;;;;;;;12.93;9.33;;;;;;;11.42;100.00;99872.41;5044903;28;20076;-70
2022/11/16 00:11:54;;;;;;;12.18;8.90;;;;;;;11.37;100.00;99880.47;5041957;28;20036;-69
2022/11/16 00:14:22;;;;;;;12.73;9.27;;;;;;;11.42;100.00;99893.53;5042288;28;20029;-68
2022/11/16 00:16:48;;;;;;;12.60;9.05;;;;;;;11.41;100.00;99902.81;5045121;28;20109;-70
2022/11/16 00:19:13;;;;;;;11.67;9.47;;;;;;;11.42;100.00;99899.03;5046473;28;20473;-68
2022/11/16 00:21:38;;;;;;;13.80;10.47;;;;;;;11.47;100.00;99890.97;5043087;28;20353;-68
2022/11/16 00:24:04;;;;;;;15.53;9.13;;;;;;;11.45;100.00;99893.06;5043069;28;20033;-69
2022/11/16 00:26:30;;;;;;;13.85;10.82;;;;;;;11.49;100.00;99886.94;5047774;28;20086;-68
2022/11/16 00:28:55;;;;;;;12.87;9.80;;;;;;;11.51;100.00;99886.69;5020702;28;20029;-69
2022/11/16 00:31:22;;;;;;;15.30;11.03;;;;;;;11.47;100.00;99891.78;5045288;28;20033;-70
2022/11/16 00:33:48;;;;;;;14.40;10.20;;;;;;;11.48;100.00;99898.13;5048118;28;20029;-69
2022/11/16 00:36:13;;;;;;;14.13;10.87;;;;;;;11.62;100.00;99889.56;5044190;28;20044;-68
2022/11/16 00:38:39;;;;;;;12.40;10.30;;;;;;;11.56;100.00;99893.16;5027898;28;20035;-68
2022/11/16 00:41:06;;;;;;;12.23;10.63;;;;;;;11.54;100.00;99889.78;5026568;28;20111;-68
2022/11/16 00:43:32;;;;;;;13.63;10.25;;;;;;;11.57;100.00;99886.63;5022886;28;20340;-67
2022/11/16 00:45:58;;;;;;;15.05;9.98;;;;;;;11.52;100.00;99894.69;5049151;28;20673;-67
2022/11/16 00:48:23;;;;;;;17.35;10.93;;;;;;;11.62;100.00;99888.69;5023800;28;20029;-68
2022/11/16 00:50:48;;;;;;;13.00;10.53;;;;;;;11.56;100.00;99890.44;5041199;28;20030;-69
2022/11/16 00:53:16;;;;;;;11.20;10.00;;;;;;;11.57;100.00;99896.72;5045044;28;20037;-68
2022/11/16 00:55:43;;;;;;;12.73;10.32;;;;;;;11.54;100.00;99892.53;5044141;28;20068;-68
2022/11/16 00:58:09;;;;;;;12.68;10.65;;;;;;;11.53;100.00;99898.28;5041777;28;20029;-68
2022/11/16 01:00:35;;;;;;;12.00;9.93;;;;;;;11.60;100.00;99893.59;5046795;28;20410;-72
2022/11/16 01:03:00;;;;;;;22.17;10.27;;;;;;;11.64;100.00;99900.31;5046932;28;20043;-68
2022/11/16 01:05:25;;;;;;;16.63;10.27;;;;;;;11.59;100.00;99897.41;5048534;28;20552;-68
2022/11/16 01:07:51;;;;;;;12.77;10.27;;;;;;;11.62;100.00;99897.78;5041956;28;20116;-68
2022/11/16 01:10:19;;;;;;;13.02;10.13;;;;;;;11.54;100.00;99894.47;5026451;28;20025;-69
2022/11/16 01:12:46;;;;;;;12.50;10.70;;;;;;;11.59;100.00;99900.13;5038392;28;20037;-70
2022/11/16 01:15:12;;;;;;;13.40;10.43;;;;;;;11.60;100.00;99896.31;5030421;28;20726;-68
2022/11/16 01:17:38;;;;;;;14.23;10.23;;;;;;;11.61;100.00;99895.25;5046700;28;20157;-67
2022/11/16 01:20:07;;;;;;;12.95;10.38;;;;;;;11.56;100.00;99900.56;5043682;28;20025;-68
2022/11/16 01:22:37;;;;;;;11.32;10.13;;;;;;;11.62;100.00;99894.19;5038827;28;20084;-68
2022/11/16 01:25:02;;;;;;;12.68;10.10;;;;;;;11.57;100.00;99894.00;5043490;28;20091;-68
2022/11/16 01:27:28;;;;;;;13.50;10.13;;;;;;;11.64;100.00;99889.31;5043024;28;20041;-68
2022/11/16 01:29:53;;;;;;;12.98;9.13;;;;;;;11.66;100.00;99895.41;5039878;28;20036;-70
2022/11/16 01:32:19;;;;;;;13.10;9.70;;;;;;;11.59;100.00;99889.16;5041806;28;20032;-68
2022/11/16 01:34:44;;;;;;;14.73;9.20;;;;;;;11.51;100.00;99878.44;5041811;28;20067;-71
2022/11/16 01:37:09;;;;;;;14.07;8.37;;;;;;;11.46;100.00;99883.78;5040372;28;20046;-68
2022/11/16 01:39:35;;;;;;;10.97;9.40;;;;;;;11.40;100.00;99876.44;5040072;28;20030;-68
2022/11/16 01:42:00;;;;;;;10.10;8.27;;;;;;;11.40;100.00;99877.31;5039440;28;20040;-69
2022/11/16 01:44:32;;;;;;;9.97;8.13;;;;;;;11.41;100.00;99878.97;5024992;28;20029;-70
2022/11/16 01:47:04;;;;;;;9.82;8.05;;;;;;;11.42;100.00;99879.81;5043409;28;20083;-71
2022/11/16 01:49:33;;;;;;;11.32;8.30;;;;;;;11.40;100.00;99893.75;5049970;28;20025;-71
2022/11/16 01:52:06;;;;;;;8.63;7.18;;;;;;;11.43;100.00;99889.72;5021396;28;20064;-68
2022/11/16 01:54:35;;;;;;;9.45;7.75;;;;;;;11.37;100.00;99885.97;5049537;28;20457;-69
2022/11/16 01:57:03;;;;;;;13.82;7.90;;;;;;;11.37;100.00;99874.19;5045151;28;20037;-70
2022/11/16 01:59:29;;;;;;;11.13;7.90;;;;;;;11.33;100.00;99883.91;5024775;28;20026;-69
2022/11/16 02:01:55;;;;;;;11.83;7.30;;;;;;;11.31;100.00;99888.78;5046596;28;20120;-72
2022/11/16 02:04:21;;;;;;;8.95;7.53;;;;;;;11.42;100.00;99893.53;5049722;28;20025;-72
2022/11/16 02:07:17;;;;;;;10.90;7.68;;;;;;;11.41;100.00;99891.84;5026906;28;20055;-72
2022/11/16 02:10:03;;;;;;;7.82;7.03;;;;;;;11.34;100.00;99885.59;5045606;28;20443;-72
2022/11/16 02:12:54;;;;;;;10.55;6.72;;;;;;;11.32;100.00;99887.72;5042905;28;20021;-73
2022/11/16 02:15:28;;;;;;;12.15;6.38;;;;;;;11.28;100.00;99881.88;5042429;28;20097;-72
2022/11/16 02:18:12;;;;;;;10.32;6.60;;;;;;;11.25;100.00;99887.78;5041680;28;20624;-73
2022/11/16 02:20:40;;;;;;;12.60;6.15;;;;;;;11.23;100.00;99881.69;5039345;28;20029;-73
2022/11/16 02:23:06;;;;;;;8.07;6.05;;;;;;;11.22;100.00;99871.78;5025778;28;20082;-72
2022/11/16 02:26:01;;;;;;;10.50;6.53;;;;;;;11.16;100.00;99878.16;5038379;28;20037;-73
2022/11/16 02:28:42;;;;;;;9.18;6.53;;;;;;;11.16;100.00;99880.06;5044551;28;20033;-72
2022/11/16 02:31:14;;;;;;;7.30;6.05;;;;;;;11.22;100.00;99887.41;5040076;28;20040;-72
2022/11/16 02:33:43;;;;;;;13.80;6.22;;;;;;;11.17;100.00;99884.50;5046078;28;20043;-72
2022/11/16 02:36:14;;;;;;;8.77;6.30;;;;;;;11.11;100.00;99863.47;5025298;28;20063;-72
2022/11/16 02:38:44;;;;;;;9.00;5.72;;;;;;;11.08;100.00;99869.38;5043267;28;20538;-72
2022/11/16 02:41:14;;;;;;;13.55;5.28;;;;;;;11.13;100.00;99878.63;5025808;28;20040;-72
2022/11/16 02:43:46;;;;;;;7.50;5.20;;;;;;;11.04;100.00;99870.91;5040335;28;20488;-72
2022/11/16 02:46:19;;;;;;;9.82;5.40;;;;;;;10.98;100.00;99869.91;5045908;28;20060;-73
2022/11/16 02:48:49;;;;;;;6.78;4.68;;;;;;;10.92;100.00;99881.75;5042240;28;20508;-72
2022/11/16 02:51:17;;;;;;;8.70;4.60;;;;;;;10.91;100.00;99892.94;5045074;28;20081;-72
2022/11/16 02:54:19;;;;;;;6.55;4.00;;;;;;;10.94;100.00;99889.75;5038826;28;20029;-72
2022/11/16 02:57:15;;;;;;;7.97;3.88;;;;;;;10.89;100.00;99881.38;5019321;28;20130;-72
2022/11/16 02:59:49;;;;;;;4.95;3.50;;;;;;;10.80;100.00;99878.06;5003648;28;20441;-73
2022/11/16 03:02:31;;;;;;;13.07;3.92;;;;;;;10.73;100.00;99888.22;5040137;28;20040;-72
2022/11/16 03:05:32;;;;;;;9.07;3.42;;;;;;;10.68;100.00;99885.28;5041184;28;20043;-72
2022/11/16 03:08:03;;;;;;;5.72;3.55;;;;;;;10.69;100.00;99880.66;5039943;28;20115;-73
2022/11/16 03:13:17;;;;;;;6.57;3.85;;;;;;;10.58;100.00;99901.38;5039341;28;20027;-72
2022/11/16 03:15:43;;;;;;;11.40;3.75;;;;;;;10.56;100.00;99897.19;5042426;28;20048;-72
2022/11/16 03:18:11;;;;;;;7.17;3.93;;;;;;;10.55;100.00;99881.81;5044235;28;20591;-72
2022/11/16 03:20:38;;;;;;;13.38;3.65;;;;;;;10.54;100.00;99893.81;5042854;28;20024;-72
2022/11/16 03:23:09;;;;;;;8.25;3.50;;;;;;;10.59;100.00;99897.59;5044085;28;20032;-72
2022/11/16 03:25:47;;;;;;;15.35;4.20;;;;;;;10.67;100.00;99893.75;5026988;28;20115;-72
2022/11/16 03:28:35;;;;;;;9.70;4.25;;;;;;;10.64;100.00;99894.19;5036509;28;20043;-72
2022/11/16 03:31:09;;;;;;;9.45;4.00;;;;;;;10.63;100.00;99895.25;5038327;28;20032;-72
2022/11/16 03:33:40;;;;;;;9.10;4.45;;;;;;;10.69;100.00;99899.84;5024415;28;20168;-72
2022/11/16 03:36:09;;;;;;;9.68;4.32;;;;;;;10.72;100.00;99893.94;5040323;28;20021;-73
2022/11/16 03:38:38;;;;;;;8.73;4.10;;;;;;;10.67;100.00;99894.56;5043314;28;20044;-72
2022/11/16 03:41:06;;;;;;;10.05;4.47;;;;;;;10.70;100.00;99891.41;5044578;28;20410;-72
2022/11/16 03:43:34;;;;;;;7.30;4.70;;;;;;;10.74;100.00;99886.31;5038288;28;20036;-72
2022/11/16 03:46:00;;;;;;;8.73;5.10;;;;;;;10.64;100.00;99892.28;5041513;28;20076;-72
2022/11/16 03:48:32;;;;;;;10.37;5.13;;;;;;;10.66;100.00;99894.78;5037625;28;20477;-72
2022/11/16 03:50:58;;;;;;;13.02;5.55;;;;;;;10.65;100.00;99893.13;5041952;28;20033;-72
2022/11/16 03:53:23;;;;;;;9.50;5.30;;;;;;;10.58;100.00;99901.38;5037642;28;20048;-72
2022/11/16 03:55:48;;;;;;;11.17;5.37;;;;;;;10.68;100.00;99901.72;5044731;28;20472;-72
2022/11/16 03:58:14;;;;;;;10.50;6.50;;;;;;;10.65;100.00;99915.03;5019648;28;20069;-72
2022/11/16 04:00:39;;;;;;;10.10;6.27;;;;;;;10.59;100.00;99918.66;5042509;28;20103;-72
2022/11/16 04:03:04;;;;;;;13.37;6.20;;;;;;;10.57;100.00;99918.03;5041835;28;20492;-72
2022/11/16 04:24:53;;;;;;;17.88;5.25;;;;;;;10.56;100.00;99914.44;5040120;28;20104;-72
2022/11/16 04:30:09;;;;;;;13.95;4.97;;;;;;;10.57;100.00;99929.81;5030469;28;20036;-72
2022/11/16 04:38:02;;;;;;;8.90;4.75;;;;;;;10.42;100.00;99923.78;5041845;28;20036;-72
2022/11/16 04:40:28;;;;;;;10.17;4.67;;;;;;;10.36;100.00;99923.84;5042838;28;20470;-72
2022/11/16 04:43:02;;;;;;;8.52;4.80;;;;;;;10.30;100.00;99932.94;5040632;28;20025;-72
2022/11/16 04:48:13;;;;;;;11.57;4.70;;;;;;;10.19;100.00;99934.44;5040356;28;20120;-72
2022/11/16 04:50:39;;;;;;;12.38;4.53;;;;;;;10.20;100.00;99930.63;5041747;28;20044;-72
2022/11/16 04:53:05;;;;;;;11.02;4.60;;;;;;;10.16;100.00;99934.88;5041890;28;20385;-72
2022/11/16 04:55:31;;;;;;;12.07;4.55;;;;;;;10.18;100.00;99932.75;5044938;28;20078;-73
2022/11/16 04:57:57;;;;;;;7.97;4.68;;;;;;;10.12;100.00;99938.25;5037778;28;20037;-72
2022/11/16 05:00:22;;;;;;;9.90;3.90;;;;;;;10.07;100.00;99930.72;5046497;28;21852;-73
2022/11/16 05:02:48;;;;;;;10.45;3.97;;;;;;;10.09;100.00;99935.97;5044602;28;20112;-72
2022/11/16 05:05:13;;;;;;;10.25;3.15;;;;;;;10.03;100.00;99936.81;5041673;28;20430;-72
2022/11/16 05:07:39;;;;;;;10.57;4.47;;;;;;;10.04;100.00;99952.19;5033939;28;20029;-72
2022/11/16 05:10:05;;;;;;;12.13;3.37;;;;;;;10.02;100.00;99941.41;5042514;28;20530;-71
2022/11/16 05:12:32;;;;;;;6.30;3.22;;;;;;;9.94;100.00;99944.38;5027914;28;20025;-73
2022/11/16 05:14:57;;;;;;;15.73;3.15;;;;;;;9.85;100.00;99940.22;5040543;28;20037;-73
2022/11/16 05:17:24;;;;;;;12.20;2.90;;;;;;;9.81;100.00;99943.56;5040764;28;20037;-72
2022/11/16 05:22:34;;;;;;;14.65;2.72;;;;;;;9.78;100.00;99944.84;5043999;28;20083;-72
2022/11/16 05:24:59;;;;;;;13.07;3.17;;;;;;;9.79;100.00;99942.97;5030816;28;20020;-72
2022/11/16 05:27:27;;;;;;;6.50;2.90;;;;;;;9.67;100.00;99947.41;5041080;28;20041;-72
2022/11/16 05:29:53;;;;;;;11.27;3.03;;;;;;;9.61;100.00;99946.34;5044574;28;20025;-72
2022/11/16 05:32:19;;;;;;;7.50;2.42;;;;;;;9.63;100.00;99940.69;5027793;28;20426;-73
2022/11/16 05:34:44;;;;;;;11.60;2.60;;;;;;;9.57;100.00;99938.81;5045442;28;20178;-71
2022/11/16 05:37:10;;;;;;;10.68;3.28;;;;;;;9.51;100.00;99942.41;5042746;28;20649;-72
2022/11/16 05:39:36;;;;;;;8.37;2.20;;;;;;;9.42;100.00;99930.84;5028477;28;20029;-72
2022/11/16 05:42:02;;;;;;;10.73;3.13;;;;;;;9.37;100.00;99932.53;5025567;28;20030;-72
2022/11/16 05:44:27;;;;;;;8.35;2.55;;;;;;;9.26;100.00;99930.44;5031019;28;20744;-73
2022/11/16 05:46:54;;;;;;;9.87;3.77;;;;;;;9.11;100.00;99938.00;5042494;28;20102;-73
2022/11/16 05:49:19;;;;;;;24.98;4.05;;;;;;;9.04;100.00;99939.91;5045123;28;20037;-72
2022/11/16 05:51:46;;;;;;;10.23;3.27;;;;;;;9.03;100.00;99946.41;5021819;28;20064;-72
2022/11/16 05:54:13;;;;;;;8.43;3.15;;;;;;;9.07;100.00;99958.63;5044622;28;20021;-73
2022/11/16 05:56:38;;;;;;;19.80;3.13;;;;;;;9.03;100.00;99951.88;5044323;28;20033;-72
2022/11/16 05:59:04;;;;;;;10.57;3.80;;;;;;;9.03;100.00;99957.34;5045814;28;20040;-73
2022/11/16 06:01:30;;;;;;;11.27;2.93;;;;;;;9.01;100.00;99954.81;5036970;28;20441;-72
2022/11/16 06:04:01;;;;;;;10.90;3.05;;;;;;;8.94;100.00;99961.31;5025023;28;20086;-72
2022/11/16 06:06:27;;;;;;;10.23;3.33;;;;;;;8.87;100.00;99955.00;5045247;28;20037;-73
2022/11/16 06:08:53;;;;;;;14.37;3.50;;;;;;;8.98;100.00;99959.84;5043184;28;20107;-72
2022/11/16 06:11:18;;;;;;;9.07;2.73;;;;;;;8.88;100.00;99959.41;5021783;28;20132;-72
2022/11/16 06:13:44;;;;;;;9.65;3.05;;;;;;;8.82;100.00;99974.72;5022538;28;20461;-72
2022/11/16 06:16:09;;;;;;;18.55;3.30;;;;;;;8.73;100.00;99966.94;5021136;28;20033;-72
2022/11/16 06:18:39;;;;;;;11.53;3.30;;;;;;;8.65;100.00;99958.97;5044125;28;20491;-71
2022/11/16 06:21:05;;;;;;;14.40;3.20;;;;;;;8.58;100.00;99964.41;5040663;28;20053;-72
2022/11/16 06:23:30;;;;;;;13.18;3.15;;;;;;;8.61;100.00;99974.06;5039004;28;20029;-72
2022/11/16 06:25:56;;;;;;;9.50;2.83;;;;;;;8.57;100.00;99973.66;5039056;28;20512;-72
2022/11/16 06:28:22;;;;;;;13.40;3.22;;;;;;;8.57;100.00;99972.78;5021523;28;20120;-72
2022/11/16 06:30:47;;;;;;;7.57;2.75;;;;;;;8.47;100.00;99981.38;5042232;28;20112;-72
2022/11/16 06:33:13;;;;;;;8.40;2.83;;;;;;;8.56;100.00;99982.03;5039835;28;20029;-72
2022/11/16 06:35:39;;;;;;;11.18;3.03;;;;;;;8.48;100.00;99979.50;5033645;28;20036;-71
2022/11/16 06:38:04;;;;;;;8.80;2.92;;;;;;;8.39;100.00;99994.38;5042184;28;20162;-71
2022/11/16 06:40:29;;;;;;;12.70;3.00;;;;;;;8.34;100.00;99981.31;5036063;28;20025;-73
2022/11/16 06:42:56;;;;;;;15.73;3.83;;;;;;;8.32;100.00;99985.31;5047437;28;20056;-72
2022/11/16 06:45:22;;;;;;;8.65;2.58;;;;;;;8.25;100.00;99988.00;5040751;28;20053;-72
2022/11/16 06:47:47;;;;;;;19.35;3.60;;;;;;;8.26;100.00;99986.09;5040804;28;20098;-71
2022/11/16 06:50:12;;;;;;;6.35;2.55;;;;;;;8.31;100.00;99984.47;5041335;28;20025;-72
2022/11/16 06:52:38;;;;;;;9.88;3.17;;;;;;;8.26;100.00;99983.38;5043784;28;20036;-72
2022/11/16 06:55:03;;;;;;;14.40;3.65;;;;;;;8.19;100.00;99991.53;5043080;28;20078;-72
2022/11/16 06:57:28;;;;;;;10.55;3.03;;;;;;;8.21;100.00;99994.06;5042519;28;20047;-72
2022/11/16 06:59:54;;;;;;;9.40;3.13;;;;;;;8.22;100.00;99980.22;5043430;28;20400;-72
2022/11/16 07:02:21;;;;;;;12.73;3.47;;;;;;;8.22;100.00;99993.03;5042848;28;20109;-72
2022/11/16 07:04:47;;;;;;;11.50;3.40;;;;;;;8.14;100.00;99985.84;5037394;28;20041;-72
2022/11/16 07:07:14;;;;;;;13.15;3.38;;;;;;;8.15;100.00;99990.25;5042068;28;20588;-72
2022/11/16 07:09:40;;;;;;;8.52;2.75;;;;;;;8.14;100.00;99988.56;5041712;28;20029;-72
2022/11/16 07:12:05;;;;;;;15.45;3.40;;;;;;;8.10;100.00;99991.88;5039372;28;20056;-72
2022/11/16 07:14:30;;;;;;;12.30;3.17;;;;;;;8.12;100.00;99995.25;5043778;28;20025;-72
2022/11/16 07:16:56;;;;;;;9.93;3.60;;;;;;;8.17;100.00;99996.31;5039080;28;20082;-72
2022/11/16 07:19:21;;;;;;;8.38;3.60;;;;;;;8.07;100.00;99987.66;5042005;28;20037;-72
2022/11/16 07:21:46;;;;;;;9.90;3.80;;;;;;;8.15;100.00;100001.16;5040070;28;20033;-72
2022/11/16 07:24:12;;;;;;;15.30;5.50;;;;;;;8.12;100.00;100008.91;5037649;28;20353;-72
2022/11/16 07:26:37;;;;;;;12.05;4.55;;;;;;;8.12;100.00;100011.63;5039540;28;20116;-72
2022/11/16 07:29:03;;;;;;;13.45;3.78;;;;;;;8.13;100.00;100019.63;5044523;28;20509;-71
2022/11/16 07:31:28;;;;;;;12.05;4.45;;;;;;;8.14;100.00;100020.44;5022497;28;20056;-72
2022/11/16 07:33:53;;;;;;;17.33;5.93;;;;;;;8.18;100.00;100022.53;5042435;28;20025;-71
2022/11/16 07:36:19;;;;;;;20.98;5.47;;;;;;;8.18;100.00;100024.44;5042394;28;20035;-71
2022/11/16 07:38:44;;;;;;;14.43;4.85;;;;;;;8.16;100.00;100023.81;5041173;28;20407;-71
2022/11/16 07:41:16;;;;;;;17.27;8.37;;;;;;;8.18;100.00;100027.19;5025204;28;20021;-71
2022/11/16 07:43:42;;;;;;;26.00;9.63;;;;;;;8.19;100.00;100023.41;5041405;28;20025;-72
2022/11/16 07:46:13;;;;;;;42.42;14.32;;;;;;;8.26;100.00;100027.03;5015018;28;20055;-71
2022/11/16 07:48:41;;;;;;;20.10;7.13;;;;;;;8.26;100.00;100030.59;5040816;28;20124;-72
2022/11/16 07:51:09;;;;;;;21.10;4.50;;;;;;;8.28;100.00;100030.41;5039788;28;20365;-72
2022/11/16 07:53:35;;;;;;;18.73;4.88;;;;;;;8.33;100.00;100033.38;5021997;28;20027;-72
2022/11/16 07:56:00;;;;;;;15.63;4.73;;;;;;;8.25;100.00;100036.25;5024227;28;20156;-73
2022/11/16 07:58:27;;;;;;;16.40;5.28;;;;;;;8.25;100.00;100037.13;5039500;28;20033;-72
2022/11/16 08:00:52;;;;;;;13.88;3.92;;;;;;;8.24;100.00;100042.78;5023828;28;20025;-72
2022/11/16 08:03:18;;;;;;;15.55;4.07;;;;;;;8.33;100.00;100036.94;5042020;28;20174;-72
2022/11/16 08:05:43;;;;;;;12.35;4.03;;;;;;;8.28;100.00;100033.97;5043738;28;20481;-72
2022/11/16 08:08:10;;;;;;;13.88;4.50;;;;;;;8.35;100.00;100029.41;5027176;28;20335;-73
2022/11/16 08:10:35;;;;;;;18.77;5.35;;;;;;;8.40;100.00;100042.44;5041981;28;20021;-72
2022/11/16 08:13:01;;;;;;;16.92;4.43;;;;;;;8.40;100.00;100047.88;5034785;28;20504;-72
2022/11/16 08:15:27;;;;;;;16.95;4.60;;;;;;;8.34;100.00;100038.59;5042185;28;20040;-72
2022/11/16 08:17:52;;;;;;;16.30;3.63;;;;;;;8.43;100.00;100047.50;5021014;28;20022;-71
2022/11/16 08:20:17;;;;;;;14.27;3.67;;;;;;;8.47;100.00;100037.84;5042754;28;20037;-72
2022/11/16 08:22:44;;;;;;;9.82;3.40;;;;;;;8.56;100.00;100050.25;5040686;28;20033;-72
2022/11/16 08:25:09;;;;;;;16.60;3.38;;;;;;;8.57;100.00;100035.56;5039713;28;20098;-72
2022/11/16 08:27:35;;;;;;;14.95;3.53;;;;;;;8.59;100.00;100042.50;5040366;28;20107;-72
2022/11/16 08:30:02;;;;;;;12.65;3.70;;;;;;;8.61;100.00;100042.31;5039190;28;20428;-72
2022/11/16 08:32:28;;;;;;;18.60;4.18;;;;;;;8.65;100.00;100035.41;5043900;28;20033;-72
2022/11/16 08:34:54;;;;;;;19.42;4.28;;;;;;;8.65;100.00;100041.69;5027309;28;20033;-72
2022/11/16 08:37:19;;;;;;;22.60;4.68;;;;;;;8.66;100.00;100043.38;5046135;28;20392;-73
2022/11/16 08:39:44;;;;;;;20.20;5.50;;;;;;;8.73;100.00;100040.66;5024841;28;20086;-72
2022/11/16 08:42:10;;;;;;;15.20;4.40;;;;;;;8.76;100.00;100038.34;5024574;28;20062;-72
2022/11/16 08:44:35;;;;;;;12.98;3.67;;;;;;;8.81;100.00;100035.03;5045235;28;20108;-73
2022/11/16 08:47:00;;;;;;;12.80;3.40;;;;;;;8.89;100.00;100043.03;5041627;28;20068;-72
2022/11/16 08:49:27;;;;;;;15.45;4.25;;;;;;;8.97;100.00;100037.38;5044239;28;20025;-72
2022/11/16 08:51:52;;;;;;;;;;;;;;;9.06;100.00;100044.31;5037703;28;20033;-73
2022/11/16 08:54:18;;;;;;;19.23;3.92;;;;;;;9.08;100.00;100047.69;5025871;28;20226;-73
2022/11/16 08:56:43;;;;;;;16.93;4.60;;;;;;;9.15;100.00;100059.47;5038925;28;20106;-71
2022/11/16 08:59:08;;;;;;;21.75;4.93;;;;;;;9.23;100.00;100062.84;5039402;28;20057;-73
2022/11/16 09:01:34;;;;;;;20.85;5.15;;;;;;;9.16;100.00;100050.22;5042991;28;20032;-73
2022/11/16 09:03:59;;;;;;;17.15;5.22;;;;;;;9.17;100.00;100051.91;5040189;28;20034;-74
2022/11/16 09:06:26;;;;;;;14.50;4.45;;;;;;;9.26;100.00;100053.41;5044365;28;20037;-73
2022/11/16 09:08:52;;;;;;;;;;;;;;;9.30;100.00;100057.41;5022503;28;20036;-73
2022/11/16 09:11:20;;;;;;;21.63;4.10;;;;;;;9.37;100.00;100052.78;5022134;28;19920;-71
2022/11/16 09:13:48;;;;;;;16.65;4.43;;;;;;;9.40;100.00;100052.38;5042948;28;20041;-73
2022/11/16 09:16:15;;;;;;;12.30;4.40;;;;;;;9.33;100.00;100052.34;5041306;28;20137;-73
2022/11/16 09:18:41;;;;;;;17.42;3.70;;;;;;;9.37;100.00;100048.16;5029049;28;20043;-73
2022/11/16 09:21:06;;;;;;;17.27;4.47;;;;;;;9.32;100.00;100056.16;5040462;28;20363;-73
2022/11/16 09:23:31;;;;;;;11.03;4.47;;;;;;;9.38;100.00;100049.84;5045993;28;20029;-73
2022/11/16 09:26:01;;;;;;;21.47;4.93;;;;;;;9.45;100.00;100047.13;5043420;28;20033;-73
2022/11/16 09:28:27;;;;;;;15.13;4.20;;;;;;;9.47;100.00;100047.75;5045905;28;20039;-73
2022/11/16 09:30:52;;;;;;;14.00;4.00;;;;;;;9.58;100.00;100052.56;5039362;28;20112;-73
2022/11/16 09:33:17;;;;;;;16.63;4.57;;;;;;;9.54;100.00;100048.56;5040234;28;20126;-73
2022/11/16 09:35:43;;;;;;;15.35;4.50;;;;;;;9.66;100.00;100045.00;5039833;28;20026;-73
2022/11/16 09:38:12;;;;;;;17.95;4.90;;;;;;;9.70;100.00;100040.78;5037346;28;20029;-73
2022/11/16 09:40:40;;;;;;;20.10;3.58;;;;;;;9.78;100.00;100039.75;5041484;28;20035;-73
2022/11/16 09:43:26;;;;;;;15.27;3.97;;;;;;;9.90;100.00;100040.78;5042603;28;20041;-73
2022/11/16 09:46:05;;;;;;;13.20;3.40;;;;;;;9.90;100.00;100033.41;5040942;28;20036;-72
2022/11/16 09:48:34;;;;;;;19.48;3.03;;;;;;;10.04;100.00;100048.78;5039188;28;20071;-72
2022/11/16 09:51:07;;;;;;;14.57;3.20;;;;;;;10.13;100.00;100050.25;5024847;28;20079;-72
2022/11/16 09:53:39;;;;;;;12.45;3.40;;;;;;;10.29;100.00;100048.91;5041295;28;20132;-73
2022/11/16 09:56:11;;;;;;;12.20;3.28;;;;;;;10.48;99.46;100061.72;5039213;28;20037;-73
2022/11/16 09:59:08;;;;;;;12.63;3.80;;;;;;;10.49;99.29;100058.78;5041878;28;20044;-73
2022/11/16 10:01:40;;;;;;;14.35;3.05;;;;;;;10.59;96.71;100056.41;5042310;28;20091;-74
2022/11/16 10:04:17;;;;;;;9.50;3.42;;;;;;;10.65;98.34;100057.44;5025303;28;20515;-73
2022/11/16 10:06:57;;;;;;;12.95;3.20;;;;;;;10.79;96.27;100053.59;5039686;28;20511;-73
2022/11/16 10:09:24;;;;;;;15.77;3.78;;;;;;;10.84;97.08;100056.53;5043491;28;20029;-73
2022/11/16 10:12:09;;;;;;;12.60;4.25;;;;;;;10.91;96.28;100054.56;5032529;28;20427;-74
2022/11/16 10:14:43;;;;;;;20.08;3.40;;;;;;;11.01;94.87;100060.44;5044836;28;20404;-73
2022/11/16 10:17:24;;;;;;;23.92;4.65;;;;;;;11.13;93.98;100058.66;5040482;28;20037;-73
2022/11/16 10:20:01;;;;;;;7.10;2.63;;;;;;;11.14;94.01;100050.22;5043296;28;20104;-73
2022/11/16 10:22:41;;;;;;;19.20;3.40;;;;;;;11.06;93.28;100055.13;5042449;28;20056;-73
2022/11/16 10:25:15;;;;;;;10.52;2.95;;;;;;;11.12;93.72;100046.03;5043223;28;20449;-73
2022/11/16 10:28:25;;;;;;;8.18;2.38;;;;;;;11.34;93.29;100048.19;5039853;28;20033;-73
2022/11/16 10:31:01;;;;;;;13.02;3.05;;;;;;;11.51;93.30;100048.47;5037903;28;20040;-73
2022/11/16 10:33:34;;;;;;;16.00;3.63;;;;;;;11.53;92.18;100041.72;5039698;28;20100;-73
2022/11/16 10:36:02;;;;;;;12.52;2.60;;;;;;;11.59;91.08;100053.75;5039501;28;20037;-73
2022/11/16 10:38:32;;;;;;;9.65;2.78;;;;;;;11.67;91.00;100043.34;5045004;28;20024;-74
2022/11/16 10:41:11;;;;;;;11.65;3.15;;;;;;;11.62;90.33;100042.31;5026283;28;20127;-73
2022/11/16 10:43:37;;;;;;;9.80;2.38;;;;;;;11.55;90.69;100041.50;5037162;28;20064;-74
2022/11/16 10:46:32;;;;;;;13.77;2.63;;;;;;;11.74;90.31;100035.06;5043865;28;20033;-73
2022/11/16 10:49:03;;;;;;;12.93;2.92;;;;;;;11.64;89.83;100040.19;5042993;28;20025;-73
2022/11/16 10:51:29;;;;;;;16.95;2.65;;;;;;;11.76;89.98;100028.28;5042634;28;20412;-73
2022/11/16 10:53:55;;;;;;;8.90;2.63;;;;;;;11.56;91.80;100035.78;5046024;28;20033;-74
2022/11/16 10:56:26;;;;;;;11.20;3.17;;;;;;;11.51;90.35;100045.75;5040355;28;20033;-74
2022/11/16 10:58:55;;;;;;;10.38;3.15;;;;;;;11.41;90.39;100046.25;5043544;28;20116;-73
2022/11/16 11:01:35;;;;;;;14.90;3.88;;;;;;;11.45;90.56;100047.50;5039399;28;20374;-74
2022/11/16 11:04:11;;;;;;;10.40;2.85;;;;;;;11.30;90.36;100044.22;5040600;28;20021;-73
2022/11/16 11:06:38;;;;;;;12.00;3.10;;;;;;;11.31;89.92;100056.84;5036141;28;20094;-74
2022/11/16 11:09:35;;;;;;;16.60;2.65;;;;;;;11.36;89.62;100056.22;5038924;28;20140;-73
2022/11/16 11:15:02;;;;;;;7.50;2.30;;;;;;;11.16;90.38;100060.97;5039672;28;20460;-73
2022/11/16 11:17:29;;;;;;;15.82;3.30;;;;;;;11.05;89.45;100048.78;5039343;28;20029;-73
2022/11/16 11:20:22;;;;;;;11.27;2.70;;;;;;;11.00;89.63;100050.53;5038381;28;20452;-72
2022/11/16 11:22:53;;;;;;;19.05;2.40;;;;;;;11.01;91.04;100054.94;5029892;28;20412;-73
2022/11/16 11:25:32;;;;;;;13.43;2.45;;;;;;;11.00;90.76;100056.84;5037400;28;20083;-73
2022/11/16 11:28:19;;;;;;;8.25;2.55;;;;;;;11.05;91.80;100056.19;5026286;28;20044;-73
2022/11/16 11:30:55;;;;;;;10.45;2.50;;;;;;;11.10;90.21;100050.91;5038172;28;20033;-73
2022/11/16 11:33:22;;;;;;;9.88;2.42;;;;;;;11.17;90.22;100048.94;5023612;28;20104;-73
2022/11/16 11:36:12;;;;;;;13.27;2.40;;;;;;;11.58;89.50;100035.56;5042816;28;20393;-73
2022/11/16 11:38:59;;;;;;;12.10;2.15;;;;;;;11.60;88.33;100034.31;5010213;28;20108;-73
2022/11/16 11:41:31;;;;;;;9.75;2.42;;;;;;;11.53;88.80;100038.16;5026674;28;20040;-73
2022/11/16 11:44:04;;;;;;;13.45;2.33;;;;;;;11.43;89.71;100032.31;5031543;28;20033;-73
2022/11/16 11:46:34;;;;;;;11.93;2.25;;;;;;;11.57;89.28;100029.25;5038712;28;20101;-73
2022/11/16 11:49:15;;;;;;;6.68;1.98;;;;;;;11.57;88.34;100020.16;5040281;28;20389;-73
2022/11/16 11:51:44;;;;;;;6.82;1.92;;;;;;;11.55;88.36;100017.66;5034998;28;20029;-73
2022/11/16 11:54:21;;;;;;;11.50;2.38;;;;;;;11.40;89.51;100021.78;5039651;28;20124;-73
2022/11/16 11:56:46;;;;;;;9.07;2.15;;;;;;;11.46;89.57;100012.66;5041727;28;20037;-73
2022/11/16 11:59:18;;;;;;;17.13;2.70;;;;;;;11.58;88.31;100005.41;5036958;28;20380;-73
2022/11/16 12:02:11;;;;;;;12.23;2.65;;;;;;;11.62;88.25;100004.75;5037657;28;20025;-73
2022/11/16 12:05:03;;;;;;;12.05;2.50;;;;;;;11.64;88.19;99999.88;5041998;28;20484;-73
2022/11/16 12:08:06;;;;;;;8.35;2.50;;;;;;;11.48;87.85;99988.63;5039316;28;20416;-73
2022/11/16 12:10:45;;;;;;;7.65;2.13;;;;;;;11.44;88.65;100007.41;5041324;28;20507;-73